This is the latest recevied weather packets stored in our database for station/object SV9TNF-1. If no packets are shown the sender has not sent any weather packets the latest 10 day(s).
| Time | Temp. | Humidity | Pressure | Rain* | Wind** | Luminosity | Snow |
|---|---|---|---|---|---|---|---|
| 1778211076 | 17.22° C | 70% | 1004.7 hPa | 0 mm | 0 m/s | - | - |
| 1778210776 | 17.22° C | 69% | 1004.7 hPa | 0 mm | 0 m/s | - | - |
| 1778210476 | 17.78° C | 68% | 1004.7 hPa | 0 mm | 0 m/s | - | - |
| 1778210176 | 17.78° C | 67% | 1004.7 hPa | 0 mm | 0 m/s | - | - |
| 1778209876 | 17.78° C | 65% | 1004.7 hPa | 0 mm | 0.45 m/s, 138° | - | - |
| 1778209575 | 18.33° C | 66% | 1004.7 hPa | 0 mm | 0 m/s | - | - |
| 1778209275 | 18.33° C | 63% | 1004.7 hPa | 0 mm | 0 m/s | - | - |
| 1778208975 | 18.89° C | 63% | 1004.1 hPa | 0 mm | 0 m/s | - | - |
| 1778208675 | 18.89° C | 58% | 1004.1 hPa | 0 mm | 1.34 m/s, 121° | - | - |
| 1778208375 | 19.44° C | 57% | 1004.1 hPa | 0 mm | 0.89 m/s, 127° | - | - |
| 1778208075 | 19.44° C | 57% | 1004.1 hPa | 0 mm | 1.34 m/s, 121° | - | - |
| 1778207775 | 19.44° C | 56% | 1003.7 hPa | 0 mm | 0.89 m/s, 121° | - | - |
| 1778207475 | 19.44° C | 57% | 1003.7 hPa | 0 mm | 0 m/s | - | - |
| 1778207174 | 19.44° C | 59% | 1003.7 hPa | 0 mm | 1.34 m/s, 112° | - | - |
| 1778206875 | 18.89° C | 60% | 1003.7 hPa | 0 mm | 1.79 m/s, 130° | - | - |
| 1778206574 | 18.89° C | 62% | 1003.7 hPa | 0 mm | 1.79 m/s, 129° | - | - |
| 1778206274 | 18.33° C | 65% | 1004.1 hPa | 0 mm | 1.34 m/s, 117° | - | - |
| 1778205975 | 18.33° C | 67% | 1004.1 hPa | 0 mm | 0 m/s | - | - |
| 1778205674 | 18.33° C | 69% | 1004.1 hPa | 0 mm | 1.79 m/s, 132° | - | - |
| 1778205374 | 18.33° C | 69% | 1004.1 hPa | 0 mm | 1.34 m/s, 115° | - | - |
| 1778205074 | 18.33° C | 69% | 1004.1 hPa | 0 mm | 1.79 m/s, 123° | - | - |
| 1778204774 | 18.33° C | 68% | 1005.1 hPa | 0 mm | 1.34 m/s, 97° | - | - |
| 1778204473 | 17.78° C | 69% | 1005.1 hPa | 0 mm | 2.68 m/s, 102° | - | - |
| 1778204173 | 18.33° C | 68% | 1005.4 hPa | 0 mm | 0.45 m/s, 128° | - | - |
| 1778203873 | 18.33° C | 66% | 1005.4 hPa | 0 mm | 0.45 m/s, 125° | - | - |
* Rain latest hour (hover to see other rain measurements)
** Current wind speed in m/s (hover to see current wind gust speed)